sensor_id;sensor_type;location;lat;lon;timestamp;pressure;altitude;pressure_sealevel;temperature;humidity
46456;BME280;64052;47.466;9.094;2023-04-15T00:01:47;94744.53;;;9.99;44.74
46456;BME280;64052;47.466;9.094;2023-04-15T00:06:52;94742.69;;;9.91;44.68
46456;BME280;64052;47.466;9.094;2023-04-15T00:11:53;94742.16;;;9.88;44.98
46456;BME280;64052;47.466;9.094;2023-04-15T00:16:55;94740.22;;;9.72;45.67
46456;BME280;64052;47.466;9.094;2023-04-15T00:21:56;94744.91;;;9.60;45.70
46456;BME280;64052;47.466;9.094;2023-04-15T00:26:58;94740.09;;;9.55;46.57
46456;BME280;64052;47.466;9.094;2023-04-15T00:32:00;94733.00;;;9.55;46.04
46456;BME280;64052;47.466;9.094;2023-04-15T00:37:01;94734.84;;;9.55;45.69
46456;BME280;64052;47.466;9.094;2023-04-15T00:42:04;94734.44;;;9.50;45.19
46456;BME280;64052;47.466;9.094;2023-04-15T00:47:06;94734.63;;;9.48;44.78
46456;BME280;64052;47.466;9.094;2023-04-15T00:52:07;94731.59;;;9.43;45.21
46456;BME280;64052;47.466;9.094;2023-04-15T00:57:09;94746.03;;;9.21;45.75
46456;BME280;64052;47.466;9.094;2023-04-15T01:02:10;94751.31;;;9.21;45.69
46456;BME280;64052;47.466;9.094;2023-04-15T01:07:12;94749.34;;;9.23;45.80
46456;BME280;64052;47.466;9.094;2023-04-15T01:12:14;94750.72;;;9.09;46.27
46456;BME280;64052;47.466;9.094;2023-04-15T01:17:16;94758.53;;;9.19;46.47
46456;BME280;64052;47.466;9.094;2023-04-15T01:22:18;94751.16;;;9.22;45.63
46456;BME280;64052;47.466;9.094;2023-04-15T01:27:20;94755.28;;;9.25;45.52
46456;BME280;64052;47.466;9.094;2023-04-15T01:32:22;94763.09;;;9.17;45.05
46456;BME280;64052;47.466;9.094;2023-04-15T01:37:25;94750.00;;;9.25;44.96
46456;BME280;64052;47.466;9.094;2023-04-15T01:42:27;94755.22;;;9.35;45.00
46456;BME280;64052;47.466;9.094;2023-04-15T01:47:28;94760.09;;;9.48;45.10
46456;BME280;64052;47.466;9.094;2023-04-15T01:52:30;94756.41;;;9.59;44.87
46456;BME280;64052;47.466;9.094;2023-04-15T01:57:31;94755.06;;;9.54;44.85
46456;BME280;64052;47.466;9.094;2023-04-15T02:02:33;94754.81;;;9.48;44.61
46456;BME280;64052;47.466;9.094;2023-04-15T02:07:34;94757.41;;;9.39;44.85
46456;BME280;64052;47.466;9.094;2023-04-15T02:12:36;94758.59;;;9.27;44.92
46456;BME280;64052;47.466;9.094;2023-04-15T02:17:37;94756.78;;;9.09;45.88
46456;BME280;64052;47.466;9.094;2023-04-15T02:22:41;94754.13;;;8.91;45.72
46456;BME280;64052;47.466;9.094;2023-04-15T02:27:42;94751.91;;;8.96;46.36
46456;BME280;64052;47.466;9.094;2023-04-15T02:32:44;94752.63;;;9.07;45.14
46456;BME280;64052;47.466;9.094;2023-04-15T02:37:46;94761.00;;;9.02;45.15
46456;BME280;64052;47.466;9.094;2023-04-15T02:42:47;94763.63;;;9.02;44.99
46456;BME280;64052;47.466;9.094;2023-04-15T02:47:51;94765.19;;;9.13;45.39
46456;BME280;64052;47.466;9.094;2023-04-15T02:52:53;94755.25;;;9.07;45.72
46456;BME280;64052;47.466;9.094;2023-04-15T02:57:55;94758.63;;;8.99;45.28
46456;BME280;64052;47.466;9.094;2023-04-15T03:03:00;94761.38;;;9.07;44.87
46456;BME280;64052;47.466;9.094;2023-04-15T03:08:02;94763.91;;;9.17;44.92
46456;BME280;64052;47.466;9.094;2023-04-15T03:13:04;94765.28;;;9.21;44.83
46456;BME280;64052;47.466;9.094;2023-04-15T03:18:06;94762.66;;;9.21;45.29
46456;BME280;64052;47.466;9.094;2023-04-15T03:23:08;94758.72;;;9.07;45.32
46456;BME280;64052;47.466;9.094;2023-04-15T03:28:10;94756.50;;;8.84;46.35
46456;BME280;64052;47.466;9.094;2023-04-15T03:33:11;94761.66;;;8.76;46.69
46456;BME280;64052;47.466;9.094;2023-04-15T03:38:13;94764.22;;;8.68;47.27
46456;BME280;64052;47.466;9.094;2023-04-15T03:43:14;94761.34;;;8.61;47.65
46456;BME280;64052;47.466;9.094;2023-04-15T03:48:16;94754.94;;;8.64;47.70
46456;BME280;64052;47.466;9.094;2023-04-15T03:53:20;94753.72;;;8.68;47.58
46456;BME280;64052;47.466;9.094;2023-04-15T03:58:21;94757.13;;;8.78;48.50
46456;BME280;64052;47.466;9.094;2023-04-15T04:03:23;94763.41;;;8.85;48.53
46456;BME280;64052;47.466;9.094;2023-04-15T04:08:25;94763.03;;;8.80;48.68
46456;BME280;64052;47.466;9.094;2023-04-15T04:13:26;94781.63;;;8.69;49.47
46456;BME280;64052;47.466;9.094;2023-04-15T04:18:28;94772.25;;;8.66;49.60
46456;BME280;64052;47.466;9.094;2023-04-15T04:23:29;94783.34;;;8.60;49.42
46456;BME280;64052;47.466;9.094;2023-04-15T04:28:31;94778.47;;;8.65;49.25
46456;BME280;64052;47.466;9.094;2023-04-15T04:33:32;94774.25;;;8.82;48.13
46456;BME280;64052;47.466;9.094;2023-04-15T04:38:34;94772.28;;;8.84;47.96
46456;BME280;64052;47.466;9.094;2023-04-15T04:43:36;94761.78;;;8.84;48.00
46456;BME280;64052;47.466;9.094;2023-04-15T04:48:37;94778.81;;;8.80;48.02
46456;BME280;64052;47.466;9.094;2023-04-15T04:53:38;94775.59;;;8.86;48.41
46456;BME280;64052;47.466;9.094;2023-04-15T04:58:40;94776.38;;;8.97;48.36
46456;BME280;64052;47.466;9.094;2023-04-15T05:03:41;94782.03;;;9.02;48.08
46456;BME280;64052;47.466;9.094;2023-04-15T05:08:43;94791.31;;;8.96;48.92
46456;BME280;64052;47.466;9.094;2023-04-15T05:13:45;94778.63;;;8.92;49.18
46456;BME280;64052;47.466;9.094;2023-04-15T05:18:46;94782.38;;;8.89;49.25
46456;BME280;64052;47.466;9.094;2023-04-15T05:23:48;94785.00;;;8.89;47.54
46456;BME280;64052;47.466;9.094;2023-04-15T05:28:50;94776.06;;;9.00;48.47
46456;BME280;64052;47.466;9.094;2023-04-15T05:33:51;94774.81;;;9.04;46.39
46456;BME280;64052;47.466;9.094;2023-04-15T05:38:53;94778.50;;;9.30;45.40
46456;BME280;64052;47.466;9.094;2023-04-15T05:43:54;94776.41;;;9.51;44.79
46456;BME280;64052;47.466;9.094;2023-04-15T05:48:56;94770.16;;;9.70;44.60
46456;BME280;64052;47.466;9.094;2023-04-15T05:53:57;94767.59;;;9.79;44.49
46456;BME280;64052;47.466;9.094;2023-04-15T05:58:59;94771.47;;;9.93;43.75
46456;BME280;64052;47.466;9.094;2023-04-15T06:04:00;94768.44;;;10.06;43.89
46456;BME280;64052;47.466;9.094;2023-04-15T06:09:02;94765.41;;;10.19;44.27
46456;BME280;64052;47.466;9.094;2023-04-15T06:14:04;94764.31;;;10.30;44.00
46456;BME280;64052;47.466;9.094;2023-04-15T06:19:06;94758.41;;;10.36;44.90
46456;BME280;64052;47.466;9.094;2023-04-15T06:24:07;94765.41;;;10.45;46.24
46456;BME280;64052;47.466;9.094;2023-04-15T06:29:09;94760.44;;;10.42;46.30
46456;BME280;64052;47.466;9.094;2023-04-15T06:34:10;94769.75;;;10.54;48.53
46456;BME280;64052;47.466;9.094;2023-04-15T06:39:12;94765.25;;;10.47;48.24
46456;BME280;64052;47.466;9.094;2023-04-15T06:44:13;94771.00;;;10.42;47.19
46456;BME280;64052;47.466;9.094;2023-04-15T06:49:15;94778.94;;;10.50;47.74
46456;BME280;64052;47.466;9.094;2023-04-15T06:54:16;94779.28;;;10.56;47.29
46456;BME280;64052;47.466;9.094;2023-04-15T06:59:18;94783.63;;;10.65;47.08
46456;BME280;64052;47.466;9.094;2023-04-15T07:04:19;94777.47;;;10.91;47.39
46456;BME280;64052;47.466;9.094;2023-04-15T07:09:24;94771.25;;;11.00;46.80
46456;BME280;64052;47.466;9.094;2023-04-15T07:14:25;94771.25;;;11.08;46.56
46456;BME280;64052;47.466;9.094;2023-04-15T07:19:27;94770.13;;;11.19;46.75
46456;BME280;64052;47.466;9.094;2023-04-15T07:24:28;94767.50;;;11.19;46.79
46456;BME280;64052;47.466;9.094;2023-04-15T07:29:30;94773.28;;;11.31;46.25
46456;BME280;64052;47.466;9.094;2023-04-15T07:34:31;94771.34;;;11.50;45.74
46456;BME280;64052;47.466;9.094;2023-04-15T07:39:33;94759.94;;;11.66;45.34
46456;BME280;64052;47.466;9.094;2023-04-15T07:44:34;94768.03;;;11.81;44.81
46456;BME280;64052;47.466;9.094;2023-04-15T07:49:36;94772.34;;;11.82;42.74
46456;BME280;64052;47.466;9.094;2023-04-15T07:54:37;94775.47;;;11.86;42.96
46456;BME280;64052;47.466;9.094;2023-04-15T07:59:39;94778.63;;;11.98;42.59
46456;BME280;64052;47.466;9.094;2023-04-15T08:04:40;94774.00;;;12.08;41.56
46456;BME280;64052;47.466;9.094;2023-04-15T08:09:42;94773.31;;;12.39;41.37
46456;BME280;64052;47.466;9.094;2023-04-15T08:14:44;94777.44;;;12.42;40.77
46456;BME280;64052;47.466;9.094;2023-04-15T08:19:45;94769.97;;;12.45;41.74
46456;BME280;64052;47.466;9.094;2023-04-15T08:24:47;94772.59;;;12.62;42.23
46456;BME280;64052;47.466;9.094;2023-04-15T08:29:48;94773.31;;;12.87;44.28
46456;BME280;64052;47.466;9.094;2023-04-15T08:34:50;94766.25;;;13.11;41.26
46456;BME280;64052;47.466;9.094;2023-04-15T08:39:51;94766.75;;;13.46;41.79
46456;BME280;64052;47.466;9.094;2023-04-15T08:44:53;94766.94;;;13.68;39.95
46456;BME280;64052;47.466;9.094;2023-04-15T08:49:56;94765.91;;;13.93;40.07
46456;BME280;64052;47.466;9.094;2023-04-15T08:54:59;94763.75;;;14.11;40.05
46456;BME280;64052;47.466;9.094;2023-04-15T09:00:02;94767.47;;;14.40;39.60
46456;BME280;64052;47.466;9.094;2023-04-15T09:05:06;94766.38;;;14.65;39.50
46456;BME280;64052;47.466;9.094;2023-04-15T09:10:08;94773.88;;;14.61;39.63
46456;BME280;64052;47.466;9.094;2023-04-15T09:15:10;94765.75;;;14.78;38.50
46456;BME280;64052;47.466;9.094;2023-04-15T09:20:13;94768.50;;;14.99;39.21
46456;BME280;64052;47.466;9.094;2023-04-15T09:30:22;94764.75;;;15.67;38.99
46456;BME280;64052;47.466;9.094;2023-04-15T09:35:26;94770.75;;;15.76;39.10
46456;BME280;64052;47.466;9.094;2023-04-15T09:40:35;94770.09;;;15.52;39.01
46456;BME280;64052;47.466;9.094;2023-04-15T09:45:37;94770.97;;;15.38;40.36
46456;BME280;64052;47.466;9.094;2023-04-15T09:50:40;94760.44;;;15.66;39.65
46456;BME280;64052;47.466;9.094;2023-04-15T09:55:55;94768.22;;;15.46;38.51
46456;BME280;64052;47.466;9.094;2023-04-15T10:00:58;94765.69;;;15.23;38.65
46456;BME280;64052;47.466;9.094;2023-04-15T10:06:01;94759.88;;;15.34;39.07
46456;BME280;64052;47.466;9.094;2023-04-15T10:11:02;94771.19;;;15.21;39.24
46456;BME280;64052;47.466;9.094;2023-04-15T10:16:14;94769.09;;;15.16;39.05
46456;BME280;64052;47.466;9.094;2023-04-15T10:21:17;94777.53;;;15.20;38.82
46456;BME280;64052;47.466;9.094;2023-04-15T10:26:19;94771.75;;;15.16;38.92
46456;BME280;64052;47.466;9.094;2023-04-15T10:31:22;94774.88;;;15.05;38.92
46456;BME280;64052;47.466;9.094;2023-04-15T10:36:24;94768.25;;;15.31;40.03
46456;BME280;64052;47.466;9.094;2023-04-15T10:41:27;94774.06;;;15.41;38.74
46456;BME280;64052;47.466;9.094;2023-04-15T10:46:37;94773.44;;;15.61;38.22
46456;BME280;64052;47.466;9.094;2023-04-15T10:51:42;94774.94;;;15.85;40.34
46456;BME280;64052;47.466;9.094;2023-04-15T10:56:44;94780.88;;;16.09;38.52
46456;BME280;64052;47.466;9.094;2023-04-15T11:01:50;94781.81;;;16.23;39.10
46456;BME280;64052;47.466;9.094;2023-04-15T11:07:04;94795.03;;;16.38;38.72
46456;BME280;64052;47.466;9.094;2023-04-15T11:12:08;94798.75;;;16.44;39.89
46456;BME280;64052;47.466;9.094;2023-04-15T11:17:10;94793.81;;;16.41;38.32
46456;BME280;64052;47.466;9.094;2023-04-15T11:22:12;94803.00;;;16.67;37.71
46456;BME280;64052;47.466;9.094;2023-04-15T11:27:22;94806.19;;;16.84;37.26
46456;BME280;64052;47.466;9.094;2023-04-15T11:32:24;94811.97;;;16.94;35.78
46456;BME280;64052;47.466;9.094;2023-04-15T11:37:29;94806.84;;;16.93;36.14
46456;BME280;64052;47.466;9.094;2023-04-15T11:42:30;94811.81;;;16.67;35.26
46456;BME280;64052;47.466;9.094;2023-04-15T11:47:49;94821.81;;;16.65;35.22
46456;BME280;64052;47.466;9.094;2023-04-15T11:52:59;94823.81;;;16.56;36.77
46456;BME280;64052;47.466;9.094;2023-04-15T12:03:19;94847.81;;;16.63;36.93
46456;BME280;64052;47.466;9.094;2023-04-15T12:08:21;94854.13;;;16.62;36.75
46456;BME280;64052;47.466;9.094;2023-04-15T12:13:23;94860.34;;;16.69;37.13
46456;BME280;64052;47.466;9.094;2023-04-15T12:18:24;94866.25;;;16.65;36.86
46456;BME280;64052;47.466;9.094;2023-04-15T12:23:26;94875.19;;;16.57;37.49
46456;BME280;64052;47.466;9.094;2023-04-15T12:28:29;94873.97;;;16.60;37.62
46456;BME280;64052;47.466;9.094;2023-04-15T12:33:34;94875.69;;;16.67;36.67
46456;BME280;64052;47.466;9.094;2023-04-15T12:38:35;94880.69;;;16.55;36.24
46456;BME280;64052;47.466;9.094;2023-04-15T12:43:37;94891.97;;;16.36;37.22
46456;BME280;64052;47.466;9.094;2023-04-15T12:48:39;94903.84;;;16.33;36.69
46456;BME280;64052;47.466;9.094;2023-04-15T12:53:40;94902.25;;;16.39;36.89
46456;BME280;64052;47.466;9.094;2023-04-15T12:58:42;94909.22;;;16.40;37.13
46456;BME280;64052;47.466;9.094;2023-04-15T13:03:43;94923.34;;;16.40;36.96
46456;BME280;64052;47.466;9.094;2023-04-15T13:08:45;94931.88;;;16.36;37.83
46456;BME280;64052;47.466;9.094;2023-04-15T13:14:06;94934.63;;;16.42;37.44
46456;BME280;64052;47.466;9.094;2023-04-15T13:19:09;94957.28;;;16.38;37.53
46456;BME280;64052;47.466;9.094;2023-04-15T13:24:10;94965.59;;;16.28;38.30
46456;BME280;64052;47.466;9.094;2023-04-15T13:29:12;94971.22;;;16.19;33.61
46456;BME280;64052;47.466;9.094;2023-04-15T13:34:13;94978.53;;;16.16;32.62
46456;BME280;64052;47.466;9.094;2023-04-15T13:39:15;94974.78;;;16.11;32.43
46456;BME280;64052;47.466;9.094;2023-04-15T13:44:16;94983.38;;;15.91;33.86
46456;BME280;64052;47.466;9.094;2023-04-15T13:49:20;94979.59;;;16.00;33.86
46456;BME280;64052;47.466;9.094;2023-04-15T13:54:21;94998.94;;;16.09;35.26
46456;BME280;64052;47.466;9.094;2023-04-15T13:59:23;94996.44;;;16.08;36.28
46456;BME280;64052;47.466;9.094;2023-04-15T14:04:24;95011.94;;;16.04;37.87
46456;BME280;64052;47.466;9.094;2023-04-15T14:09:26;95022.94;;;16.01;38.41
46456;BME280;64052;47.466;9.094;2023-04-15T14:14:28;95027.25;;;15.72;36.79
46456;BME280;64052;47.466;9.094;2023-04-15T14:19:30;95011.75;;;15.45;35.26
46456;BME280;64052;47.466;9.094;2023-04-15T14:24:32;95018.06;;;15.44;35.67
46456;BME280;64052;47.466;9.094;2023-04-15T14:29:33;95025.56;;;15.26;36.17
46456;BME280;64052;47.466;9.094;2023-04-15T14:34:35;95032.44;;;15.35;40.40
46456;BME280;64052;47.466;9.094;2023-04-15T14:39:36;95034.84;;;15.45;39.75
46456;BME280;64052;47.466;9.094;2023-04-15T14:44:38;95046.56;;;15.12;41.23
46456;BME280;64052;47.466;9.094;2023-04-15T14:49:39;95046.66;;;14.81;41.21
46456;BME280;64052;47.466;9.094;2023-04-15T14:54:41;95059.94;;;14.81;41.30
46456;BME280;64052;47.466;9.094;2023-04-15T14:59:42;95064.94;;;14.99;40.90
46456;BME280;64052;47.466;9.094;2023-04-15T15:04:44;95076.88;;;15.03;42.82
46456;BME280;64052;47.466;9.094;2023-04-15T15:09:46;95094.69;;;14.94;42.41
46456;BME280;64052;47.466;9.094;2023-04-15T15:14:47;95096.50;;;14.94;43.16
46456;BME280;64052;47.466;9.094;2023-04-15T15:19:49;95111.41;;;14.63;43.84
46456;BME280;64052;47.466;9.094;2023-04-15T15:24:50;95123.22;;;14.21;44.92
46456;BME280;64052;47.466;9.094;2023-04-15T15:29:52;95128.47;;;13.81;45.19
46456;BME280;64052;47.466;9.094;2023-04-15T15:34:53;95139.59;;;13.59;45.95
46456;BME280;64052;47.466;9.094;2023-04-15T15:39:55;95135.59;;;13.39;47.13
46456;BME280;64052;47.466;9.094;2023-04-15T15:44:57;95138.28;;;13.47;46.97
46456;BME280;64052;47.466;9.094;2023-04-15T15:49:59;95157.31;;;13.59;47.64
46456;BME280;64052;47.466;9.094;2023-04-15T15:55:00;95157.81;;;13.71;46.94
46456;BME280;64052;47.466;9.094;2023-04-15T16:00:02;95169.69;;;13.91;46.36
46456;BME280;64052;47.466;9.094;2023-04-15T16:05:07;95167.38;;;13.88;47.37
46456;BME280;64052;47.466;9.094;2023-04-15T16:10:08;95173.00;;;13.69;45.89
46456;BME280;64052;47.466;9.094;2023-04-15T16:15:11;95179.00;;;13.62;45.93
46456;BME280;64052;47.466;9.094;2023-04-15T16:20:12;95179.16;;;13.69;45.91
46456;BME280;64052;47.466;9.094;2023-04-15T16:25:14;95187.13;;;13.53;46.05
46456;BME280;64052;47.466;9.094;2023-04-15T16:30:15;95193.56;;;13.58;45.06
46456;BME280;64052;47.466;9.094;2023-04-15T16:35:17;95197.69;;;13.44;45.75
46456;BME280;64052;47.466;9.094;2023-04-15T16:40:18;95203.28;;;13.33;46.56
46456;BME280;64052;47.466;9.094;2023-04-15T16:45:20;95218.00;;;13.27;45.97
46456;BME280;64052;47.466;9.094;2023-04-15T16:50:21;95214.66;;;13.00;47.22
46456;BME280;64052;47.466;9.094;2023-04-15T16:55:23;95230.84;;;13.05;47.73
46456;BME280;64052;47.466;9.094;2023-04-15T17:00:24;95233.53;;;13.14;47.80
46456;BME280;64052;47.466;9.094;2023-04-15T17:05:26;95239.28;;;13.01;48.40
46456;BME280;64052;47.466;9.094;2023-04-15T17:10:29;95233.31;;;12.90;49.05
46456;BME280;64052;47.466;9.094;2023-04-15T17:15:31;95241.63;;;13.12;49.03
46456;BME280;64052;47.466;9.094;2023-04-15T17:20:33;95252.00;;;12.89;48.54
46456;BME280;64052;47.466;9.094;2023-04-15T17:25:34;95268.53;;;12.91;49.08
46456;BME280;64052;47.466;9.094;2023-04-15T17:30:36;95277.97;;;12.93;48.59
46456;BME280;64052;47.466;9.094;2023-04-15T17:35:38;95283.44;;;13.00;47.40
46456;BME280;64052;47.466;9.094;2023-04-15T17:40:39;95304.16;;;13.13;47.71
46456;BME280;64052;47.466;9.094;2023-04-15T17:45:41;95312.47;;;13.18;47.16
46456;BME280;64052;47.466;9.094;2023-04-15T17:50:42;95316.03;;;13.44;47.00
46456;BME280;64052;47.466;9.094;2023-04-15T17:55:44;95328.28;;;13.53;46.83
46456;BME280;64052;47.466;9.094;2023-04-15T18:00:46;95344.38;;;13.60;46.99
46456;BME280;64052;47.466;9.094;2023-04-15T18:05:47;95355.13;;;13.67;46.51
46456;BME280;64052;47.466;9.094;2023-04-15T18:10:49;95352.97;;;13.62;47.55
46456;BME280;64052;47.466;9.094;2023-04-15T18:15:50;95367.41;;;13.59;48.77
46456;BME280;64052;47.466;9.094;2023-04-15T18:20:52;95381.53;;;13.42;49.18
46456;BME280;64052;47.466;9.094;2023-04-15T18:25:53;95393.75;;;13.34;49.07
46456;BME280;64052;47.466;9.094;2023-04-15T18:30:55;95406.28;;;13.24;48.97
46456;BME280;64052;47.466;9.094;2023-04-15T18:35:57;95402.28;;;13.20;50.00
46456;BME280;64052;47.466;9.094;2023-04-15T18:40:58;95418.28;;;12.84;49.73
46456;BME280;64052;47.466;9.094;2023-04-15T18:46:00;95410.34;;;12.57;50.53
46456;BME280;64052;47.466;9.094;2023-04-15T18:51:01;95426.59;;;12.62;51.45
46456;BME280;64052;47.466;9.094;2023-04-15T18:56:03;95443.06;;;12.74;51.61
46456;BME280;64052;47.466;9.094;2023-04-15T19:01:05;95440.44;;;12.83;50.89
46456;BME280;64052;47.466;9.094;2023-04-15T19:06:06;95446.97;;;12.70;48.92
46456;BME280;64052;47.466;9.094;2023-04-15T19:11:08;95461.38;;;12.49;49.35
46456;BME280;64052;47.466;9.094;2023-04-15T19:16:09;95466.44;;;12.43;49.69
46456;BME280;64052;47.466;9.094;2023-04-15T19:21:11;95473.53;;;12.42;49.44
46456;BME280;64052;47.466;9.094;2023-04-15T19:26:13;95477.84;;;12.43;49.97
46456;BME280;64052;47.466;9.094;2023-04-15T19:31:14;95486.53;;;12.54;49.16
46456;BME280;64052;47.466;9.094;2023-04-15T19:36:16;95495.13;;;12.56;49.27
46456;BME280;64052;47.466;9.094;2023-04-15T19:41:17;95507.13;;;12.68;50.23
46456;BME280;64052;47.466;9.094;2023-04-15T19:46:19;95505.34;;;12.69;49.93
46456;BME280;64052;47.466;9.094;2023-04-15T19:51:21;95507.44;;;12.65;49.44
46456;BME280;64052;47.466;9.094;2023-04-15T19:56:22;95509.72;;;12.60;50.15
46456;BME280;64052;47.466;9.094;2023-04-15T20:01:24;95515.28;;;12.57;50.66
46456;BME280;64052;47.466;9.094;2023-04-15T20:06:26;95525.28;;;12.81;50.37
46456;BME280;64052;47.466;9.094;2023-04-15T20:11:27;95522.44;;;13.01;50.13
46456;BME280;64052;47.466;9.094;2023-04-15T20:16:48;95526.53;;;12.95;50.79
46456;BME280;64052;47.466;9.094;2023-04-15T20:21:50;95534.63;;;12.93;51.53
46456;BME280;64052;47.466;9.094;2023-04-15T20:26:53;95530.22;;;13.02;52.68
46456;BME280;64052;47.466;9.094;2023-04-15T20:31:54;95536.81;;;12.98;52.94
46456;BME280;64052;47.466;9.094;2023-04-15T20:36:55;95543.56;;;12.74;53.07
46456;BME280;64052;47.466;9.094;2023-04-15T20:41:57;95552.41;;;12.83;53.40
46456;BME280;64052;47.466;9.094;2023-04-15T20:46:58;95549.22;;;12.79;53.40
46456;BME280;64052;47.466;9.094;2023-04-15T20:52:01;95560.88;;;12.87;54.83
46456;BME280;64052;47.466;9.094;2023-04-15T20:57:02;95577.28;;;12.90;55.43
46456;BME280;64052;47.466;9.094;2023-04-15T21:02:04;95582.72;;;12.89;55.56
46456;BME280;64052;47.466;9.094;2023-04-15T21:07:05;95581.28;;;12.76;55.95
46456;BME280;64052;47.466;9.094;2023-04-15T21:12:07;95584.16;;;12.65;56.82
46456;BME280;64052;47.466;9.094;2023-04-15T21:17:09;95586.41;;;12.42;56.61
46456;BME280;64052;47.466;9.094;2023-04-15T21:22:11;95588.72;;;12.27;56.70
46456;BME280;64052;47.466;9.094;2023-04-15T21:27:13;95588.81;;;11.97;58.23
46456;BME280;64052;47.466;9.094;2023-04-15T21:32:14;95604.00;;;11.85;57.76
46456;BME280;64052;47.466;9.094;2023-04-15T21:37:16;95591.81;;;11.74;59.07
46456;BME280;64052;47.466;9.094;2023-04-15T21:42:17;95595.66;;;11.90;59.25
46456;BME280;64052;47.466;9.094;2023-04-15T21:47:19;95599.25;;;11.99;58.86
46456;BME280;64052;47.466;9.094;2023-04-15T21:52:21;95606.22;;;11.90;59.28
46456;BME280;64052;47.466;9.094;2023-04-15T21:57:22;95600.16;;;11.79;58.67
46456;BME280;64052;47.466;9.094;2023-04-15T22:02:24;95604.00;;;11.85;59.01
46456;BME280;64052;47.466;9.094;2023-04-15T22:07:25;95605.16;;;11.73;58.55
46456;BME280;64052;47.466;9.094;2023-04-15T22:12:27;95614.19;;;11.80;59.18
46456;BME280;64052;47.466;9.094;2023-04-15T22:17:28;95606.94;;;11.82;58.65
46456;BME280;64052;47.466;9.094;2023-04-15T22:22:30;95605.09;;;11.92;58.53
46456;BME280;64052;47.466;9.094;2023-04-15T22:27:44;95614.50;;;11.77;58.01
46456;BME280;64052;47.466;9.094;2023-04-15T22:32:45;95618.69;;;11.60;57.49
46456;BME280;64052;47.466;9.094;2023-04-15T22:37:47;95622.50;;;11.37;58.57
46456;BME280;64052;47.466;9.094;2023-04-15T22:42:48;95625.84;;;11.30;58.46
46456;BME280;64052;47.466;9.094;2023-04-15T22:47:50;95632.47;;;11.44;58.87
46456;BME280;64052;47.466;9.094;2023-04-15T22:52:53;95630.78;;;11.52;58.44
46456;BME280;64052;47.466;9.094;2023-04-15T22:57:55;95640.22;;;11.65;58.04
46456;BME280;64052;47.466;9.094;2023-04-15T23:02:56;95643.84;;;11.74;57.45
46456;BME280;64052;47.466;9.094;2023-04-15T23:07:58;95649.16;;;11.44;58.32
46456;BME280;64052;47.466;9.094;2023-04-15T23:13:00;95648.59;;;11.50;58.42
46456;BME280;64052;47.466;9.094;2023-04-15T23:18:01;95650.53;;;11.68;58.80
46456;BME280;64052;47.466;9.094;2023-04-15T23:23:03;95658.53;;;11.76;58.87
46456;BME280;64052;47.466;9.094;2023-04-15T23:28:04;95668.50;;;11.92;58.53
46456;BME280;64052;47.466;9.094;2023-04-15T23:33:06;95660.03;;;11.99;58.01
46456;BME280;64052;47.466;9.094;2023-04-15T23:38:07;95667.69;;;12.02;57.95
46456;BME280;64052;47.466;9.094;2023-04-15T23:43:09;95664.88;;;12.13;58.00
46456;BME280;64052;47.466;9.094;2023-04-15T23:48:10;95664.19;;;12.11;58.06
46456;BME280;64052;47.466;9.094;2023-04-15T23:53:12;95669.63;;;12.00;58.48
46456;BME280;64052;47.466;9.094;2023-04-15T23:58:13;95670.59;;;12.08;58.98
